createdAt,value
2023-02-19T00:00:02.408Z,970
2023-02-19T00:01:15.184Z,969
2023-02-19T00:02:28.420Z,969
2023-02-19T00:03:31.145Z,970
2023-02-19T00:04:45.962Z,970
2023-02-19T00:05:58.746Z,967
2023-02-19T00:07:02.429Z,966
2023-02-19T00:08:15.083Z,965
2023-02-19T00:09:28.383Z,964
2023-02-19T00:10:31.066Z,966
2023-02-19T00:11:44.433Z,965
2023-02-19T00:12:57.089Z,963
2023-02-19T00:14:11.427Z,964
2023-02-19T00:15:14.134Z,963
2023-02-19T00:16:27.389Z,964
2023-02-19T00:17:40.055Z,960
2023-02-19T00:18:43.464Z,957
2023-02-19T00:19:56.134Z,958
2023-02-19T00:21:09.607Z,958
2023-02-19T00:22:12.458Z,958
2023-02-19T00:23:25.911Z,956
2023-02-19T00:24:38.549Z,955
2023-02-19T00:25:51.888Z,954
2023-02-19T00:26:54.620Z,954
2023-02-19T00:28:07.923Z,955
2023-02-19T00:29:20.612Z,956
2023-02-19T00:30:33.957Z,955
2023-02-19T00:31:36.882Z,955
2023-02-19T00:32:50.400Z,952
2023-02-19T00:34:03.071Z,951
2023-02-19T00:35:06.946Z,952
2023-02-19T00:36:19.611Z,953
2023-02-19T00:37:32.923Z,951
2023-02-19T00:38:35.647Z,950
2023-02-19T00:39:49.419Z,949
2023-02-19T00:41:02.043Z,950
2023-02-19T00:42:15.414Z,951
2023-02-19T00:43:18.135Z,951
2023-02-19T00:44:31.400Z,955
2023-02-19T00:45:44.072Z,955
2023-02-19T00:46:47.938Z,954
2023-02-19T00:48:00.596Z,955
2023-02-19T00:49:13.920Z,955
2023-02-19T00:50:26.598Z,951
2023-02-19T00:51:29.920Z,950
2023-02-19T00:52:42.590Z,952
2023-02-19T00:53:55.949Z,951
2023-02-19T00:54:58.660Z,953
2023-02-19T00:56:11.928Z,952
2023-02-19T00:57:24.623Z,953
2023-02-19T00:58:37.913Z,952
2023-02-19T00:59:40.636Z,954
2023-02-19T01:00:53.929Z,953
2023-02-19T01:02:06.595Z,950
2023-02-19T01:03:09.909Z,949
2023-02-19T01:04:22.574Z,949
2023-02-19T01:05:36.449Z,949
2023-02-19T01:06:39.173Z,950
2023-02-19T01:07:52.434Z,949
2023-02-19T01:09:05.101Z,949
2023-02-19T01:10:18.515Z,948
2023-02-19T01:11:21.294Z,948
2023-02-19T01:12:34.899Z,947
2023-02-19T01:13:47.559Z,945
2023-02-19T01:14:51.024Z,945
2023-02-19T01:16:03.755Z,947
2023-02-19T01:17:17.453Z,949
2023-02-19T01:18:20.206Z,948
2023-02-19T01:19:33.945Z,950
2023-02-19T01:20:46.618Z,952
2023-02-19T01:21:50.450Z,953
2023-02-19T01:23:03.118Z,950
2023-02-19T01:24:16.396Z,952
2023-02-19T01:25:39.008Z,953
2023-02-19T01:26:32.507Z,951
2023-02-19T01:27:45.265Z,952
2023-02-19T01:28:58.946Z,950
2023-02-19T01:30:01.880Z,948
2023-02-19T01:31:15.547Z,946
2023-02-19T01:32:28.307Z,944
2023-02-19T01:33:31.932Z,946
2023-02-19T01:34:44.607Z,946
2023-02-19T01:35:57.912Z,946
2023-02-19T01:37:10.565Z,945
2023-02-19T01:38:13.914Z,947
2023-02-19T01:39:26.698Z,948
2023-02-19T01:40:39.948Z,947
2023-02-19T01:41:42.682Z,948
2023-02-19T01:42:55.949Z,947
2023-02-19T01:44:08.708Z,950
2023-02-19T01:45:22.434Z,949
2023-02-19T01:46:25.202Z,950
2023-02-19T01:47:38.922Z,948
2023-02-19T01:49:01.447Z,951
2023-02-19T01:49:55.541Z,951
2023-02-19T01:51:08.602Z,951
2023-02-19T01:52:22.433Z,951
2023-02-19T01:53:25.155Z,949
2023-02-19T01:54:38.436Z,948
2023-02-19T01:55:51.118Z,947
2023-02-19T01:56:54.459Z,945
2023-02-19T01:58:07.127Z,945
2023-02-19T01:59:20.466Z,946
2023-02-19T02:00:33.167Z,948
2023-02-19T02:01:36.957Z,948
2023-02-19T02:02:49.781Z,947
2023-02-19T02:04:24.535Z,944
2023-02-19T02:05:07.509Z,945
2023-02-19T02:06:20.151Z,948
2023-02-19T02:07:33.497Z,947
2023-02-19T02:08:36.183Z,948
2023-02-19T02:09:49.473Z,946
2023-02-19T02:11:02.135Z,943
2023-02-19T02:12:15.448Z,942
2023-02-19T02:13:18.138Z,945
2023-02-19T02:14:31.461Z,944
2023-02-19T02:15:44.144Z,944
2023-02-19T02:16:47.453Z,945
2023-02-19T02:18:00.455Z,943
2023-02-19T02:19:13.961Z,946
2023-02-19T02:20:16.659Z,945
2023-02-19T02:21:30.049Z,944
2023-02-19T02:22:42.706Z,944
2023-02-19T02:23:55.972Z,944
2023-02-19T02:24:58.707Z,944
2023-02-19T02:26:11.965Z,944
2023-02-19T02:27:24.646Z,944
2023-02-19T02:28:37.952Z,942
2023-02-19T02:29:40.673Z,941
2023-02-19T02:30:54.465Z,943
2023-02-19T02:32:07.404Z,944
2023-02-19T02:33:10.969Z,945
2023-02-19T02:34:23.644Z,948
2023-02-19T02:35:36.966Z,949
2023-02-19T02:36:39.784Z,947
2023-02-19T02:37:53.475Z,947
2023-02-19T02:39:06.115Z,947
2023-02-19T02:40:39.475Z,944
2023-02-19T02:41:22.305Z,943
2023-02-19T02:42:34.928Z,947
2023-02-19T02:43:48.444Z,944
2023-02-19T02:44:51.185Z,941
2023-02-19T02:46:04.519Z,942
2023-02-19T02:47:27.115Z,941
2023-02-19T02:48:30.498Z,942
2023-02-19T02:49:33.210Z,944
2023-02-19T02:50:46.471Z,944
2023-02-19T02:51:59.131Z,945
2023-02-19T02:53:02.460Z,942
2023-02-19T02:54:15.140Z,941
2023-02-19T02:55:28.451Z,941
2023-02-19T02:56:40.929Z,942
2023-02-19T02:57:44.459Z,943
2023-02-19T02:58:57.093Z,944
2023-02-19T03:00:10.450Z,943
2023-02-19T03:01:23.235Z,942
2023-02-19T03:02:27.042Z,941
2023-02-19T03:03:39.773Z,941
2023-02-19T03:04:53.468Z,940
2023-02-19T03:05:55.995Z,941
2023-02-19T03:07:09.594Z,938
2023-02-19T03:08:22.056Z,938
2023-02-19T03:09:25.450Z,940
2023-02-19T03:10:38.108Z,940
2023-02-19T03:11:51.467Z,938
2023-02-19T03:12:54.168Z,939
2023-02-19T03:14:07.981Z,939
2023-02-19T03:15:20.644Z,943
2023-02-19T03:16:34.000Z,944
2023-02-19T03:17:46.683Z,943
2023-02-19T03:18:49.943Z,942
2023-02-19T03:20:02.594Z,939
2023-02-19T03:21:06.078Z,942
2023-02-19T03:22:18.766Z,941
2023-02-19T03:23:32.514Z,940
2023-02-19T03:24:35.389Z,939
2023-02-19T03:25:48.947Z,937
2023-02-19T03:27:01.619Z,938
2023-02-19T03:28:24.979Z,939
2023-02-19T03:29:17.769Z,939
2023-02-19T03:30:31.039Z,937
2023-02-19T03:31:43.860Z,938
2023-02-19T03:32:47.449Z,940
2023-02-19T03:34:00.134Z,940
2023-02-19T03:35:13.480Z,941
2023-02-19T03:36:26.167Z,941
2023-02-19T03:37:29.472Z,939
2023-02-19T03:38:42.141Z,941
2023-02-19T03:39:55.478Z,941
2023-02-19T03:40:58.193Z,943
2023-02-19T03:42:11.494Z,947
2023-02-19T03:43:24.165Z,950
2023-02-19T03:44:37.454Z,953
2023-02-19T03:45:40.241Z,954
2023-02-19T03:46:53.989Z,957
2023-02-19T03:48:06.675Z,961
2023-02-19T03:49:19.958Z,963
2023-02-19T03:50:22.706Z,968
2023-02-19T03:51:35.947Z,967
2023-02-19T03:52:48.627Z,968
2023-02-19T03:53:51.997Z,970
2023-02-19T03:55:04.685Z,971
2023-02-19T03:56:17.989Z,974
2023-02-19T03:57:30.672Z,974
2023-02-19T03:58:33.978Z,977
2023-02-19T03:59:46.664Z,980
2023-02-19T04:00:59.956Z,980
2023-02-19T04:02:02.741Z,981
2023-02-19T04:03:16.475Z,980
2023-02-19T04:04:30.151Z,982
2023-02-19T04:05:33.976Z,982
2023-02-19T04:06:46.659Z,983
2023-02-19T04:07:59.989Z,986
2023-02-19T04:09:12.660Z,989
2023-02-19T04:10:15.961Z,992
2023-02-19T04:11:28.663Z,997
2023-02-19T04:12:42.014Z,999
2023-02-19T04:13:45.733Z,998
2023-02-19T04:14:59.481Z,996
2023-02-19T04:16:12.289Z,998
2023-02-19T04:17:15.999Z,999
2023-02-19T04:18:28.763Z,998
2023-02-19T04:19:42.472Z,1000
2023-02-19T04:20:45.194Z,1002
2023-02-19T04:21:58.506Z,1002
2023-02-19T04:23:11.319Z,1002
2023-02-19T04:24:24.965Z,1002
2023-02-19T04:25:27.817Z,1005
2023-02-19T04:26:41.523Z,1005
2023-02-19T04:27:54.207Z,1005
2023-02-19T04:28:57.469Z,1007
2023-02-19T04:30:10.212Z,1006
2023-02-19T04:31:23.552Z,1004
2023-02-19T04:32:36.304Z,1004
2023-02-19T04:33:40.056Z,1001
2023-02-19T04:34:54.384Z,996
2023-02-19T04:35:57.994Z,992
2023-02-19T04:37:10.704Z,992
2023-02-19T04:38:23.988Z,991
2023-02-19T04:39:36.653Z,990
2023-02-19T04:40:39.976Z,987
2023-02-19T04:41:52.670Z,987
2023-02-19T04:43:05.962Z,985
2023-02-19T04:44:28.605Z,982
2023-02-19T04:45:21.992Z,984
2023-02-19T04:46:34.644Z,983
2023-02-19T04:47:47.965Z,981
2023-02-19T04:48:50.693Z,982
2023-02-19T04:50:04.000Z,983
2023-02-19T04:51:16.825Z,983
2023-02-19T04:52:20.614Z,982
2023-02-19T04:53:33.358Z,979
2023-02-19T04:54:46.993Z,977
2023-02-19T04:55:49.717Z,979
2023-02-19T04:57:03.004Z,980
2023-02-19T04:58:15.683Z,979
2023-02-19T04:59:28.980Z,979
2023-02-19T05:00:31.698Z,978
2023-02-19T05:01:45.045Z,977
2023-02-19T05:02:57.784Z,975
2023-02-19T05:04:11.064Z,975
2023-02-19T05:05:13.883Z,977
2023-02-19T05:06:27.526Z,977
2023-02-19T05:07:40.199Z,975
2023-02-19T05:08:44.015Z,973
2023-02-19T05:09:56.691Z,973
2023-02-19T05:11:10.378Z,974
2023-02-19T05:12:13.410Z,975
2023-02-19T05:13:27.010Z,976
2023-02-19T05:14:39.859Z,977
2023-02-19T05:15:43.507Z,976
2023-02-19T05:17:06.137Z,976
2023-02-19T05:18:09.490Z,975
2023-02-19T05:19:22.229Z,974
2023-02-19T05:20:25.499Z,972
2023-02-19T05:21:38.182Z,971
2023-02-19T05:22:51.505Z,970
2023-02-19T05:23:54.233Z,967
2023-02-19T05:25:07.492Z,966
2023-02-19T05:26:20.156Z,967
2023-02-19T05:27:33.481Z,967
2023-02-19T05:28:36.315Z,969
2023-02-19T05:29:50.015Z,970
2023-02-19T05:31:02.736Z,967
2023-02-19T05:32:06.507Z,965
2023-02-19T05:33:19.222Z,963
2023-02-19T05:34:32.511Z,967
2023-02-19T05:35:35.221Z,966
2023-02-19T05:36:48.521Z,966
2023-02-19T05:38:01.210Z,965
2023-02-19T05:39:24.502Z,962
2023-02-19T05:40:17.301Z,959
2023-02-19T05:41:30.989Z,960
2023-02-19T05:42:43.678Z,959
2023-02-19T05:43:57.000Z,959
2023-02-19T05:44:59.757Z,960
2023-02-19T05:46:13.037Z,959
2023-02-19T05:47:25.726Z,960
2023-02-19T05:48:30.022Z,957
2023-02-19T05:49:42.702Z,954
2023-02-19T05:50:56.044Z,956
2023-02-19T05:51:58.765Z,955
2023-02-19T05:53:12.512Z,958
2023-02-19T05:54:25.211Z,956
2023-02-19T05:55:38.512Z,955
2023-02-19T05:56:41.285Z,954
2023-02-19T05:57:55.075Z,955
2023-02-19T05:59:07.768Z,953
2023-02-19T06:00:11.533Z,955
2023-02-19T06:01:24.196Z,955
2023-02-19T06:02:37.582Z,955
2023-02-19T06:03:40.435Z,956
2023-02-19T06:05:15.554Z,955
2023-02-19T06:06:08.345Z,952
2023-02-19T06:07:11.047Z,951
2023-02-19T06:08:27.543Z,953
2023-02-19T06:09:30.289Z,953
2023-02-19T06:10:43.511Z,952
2023-02-19T06:11:56.172Z,953
2023-02-19T06:13:09.538Z,953
2023-02-19T06:14:12.279Z,952
2023-02-19T06:15:26.019Z,952
2023-02-19T06:16:38.686Z,952
2023-02-19T06:17:42.045Z,949
2023-02-19T06:18:54.739Z,948
2023-02-19T06:20:08.037Z,946
2023-02-19T06:21:20.847Z,944
2023-02-19T06:22:24.510Z,943
2023-02-19T06:23:37.295Z,941
2023-02-19T06:24:51.043Z,944
2023-02-19T06:25:53.793Z,948
2023-02-19T06:27:07.555Z,947
2023-02-19T06:28:20.242Z,950
2023-02-19T06:29:24.162Z,952
2023-02-19T06:30:36.844Z,953
2023-02-19T06:31:50.615Z,952
2023-02-19T06:32:53.493Z,952
2023-02-19T06:34:07.037Z,952
2023-02-19T06:35:20.018Z,957
2023-02-19T06:36:34.562Z,962
2023-02-19T06:37:47.110Z,962
2023-02-19T06:39:10.554Z,966
2023-02-19T06:40:03.352Z,969
2023-02-19T06:41:06.067Z,971
2023-02-19T06:42:19.555Z,973
2023-02-19T06:43:32.224Z,973
2023-02-19T06:44:35.633Z,973
2023-02-19T06:45:48.310Z,974
2023-02-19T06:47:02.041Z,976
2023-02-19T06:48:14.673Z,979
2023-02-19T06:49:18.070Z,981
2023-02-19T06:50:30.724Z,981
2023-02-19T06:51:54.065Z,986
2023-02-19T06:52:46.852Z,988
2023-02-19T06:54:00.519Z,997
2023-02-19T06:55:13.404Z,1003
2023-02-19T06:56:27.088Z,1020
2023-02-19T06:57:29.803Z,1018
2023-02-19T06:58:43.037Z,1041
2023-02-19T06:59:55.708Z,1051
2023-02-19T07:00:59.114Z,1055
2023-02-19T07:02:12.030Z,1059
2023-02-19T07:03:25.548Z,1062
2023-02-19T07:04:28.325Z,1078
2023-02-19T07:05:42.051Z,1083
2023-02-19T07:06:54.705Z,1089
2023-02-19T07:07:58.048Z,1095
2023-02-19T07:09:10.734Z,1102
2023-02-19T07:10:24.043Z,1107
2023-02-19T07:11:27.929Z,1112
2023-02-19T07:12:41.568Z,1118
2023-02-19T07:13:54.209Z,1126
2023-02-19T07:15:07.570Z,1135
2023-02-19T07:16:10.277Z,1146
2023-02-19T07:17:23.565Z,1161
2023-02-19T07:18:36.322Z,1182
2023-02-19T07:19:40.080Z,1206
2023-02-19T07:20:52.970Z,1216
2023-02-19T07:22:06.565Z,1236
2023-02-19T07:23:09.369Z,1246
2023-02-19T07:24:23.073Z,1247
2023-02-19T07:25:35.818Z,1252
2023-02-19T07:26:39.557Z,1253
2023-02-19T07:27:52.201Z,1254
2023-02-19T07:29:05.573Z,1260
2023-02-19T07:30:18.371Z,1261
2023-02-19T07:31:22.191Z,1264
2023-02-19T07:32:34.888Z,1262
2023-02-19T07:33:48.606Z,1266
2023-02-19T07:34:51.299Z,1272
2023-02-19T07:36:04.584Z,1277
2023-02-19T07:37:17.248Z,1280
2023-02-19T07:38:30.576Z,1279
2023-02-19T07:39:33.263Z,1280
2023-02-19T07:40:46.567Z,1281
2023-02-19T07:41:59.211Z,1283
2023-02-19T07:43:02.555Z,1284
2023-02-19T07:44:15.206Z,1281
2023-02-19T07:45:28.622Z,1286
2023-02-19T07:46:31.411Z,1288
2023-02-19T07:47:45.060Z,1290
2023-02-19T07:48:57.702Z,1296
2023-02-19T07:50:13.931Z,1296
2023-02-19T07:51:16.806Z,1295
2023-02-19T07:52:30.100Z,1302
2023-02-19T07:53:32.919Z,1305
2023-02-19T07:54:46.580Z,1310
2023-02-19T07:55:59.250Z,1313
2023-02-19T07:57:12.585Z,1315
2023-02-19T07:58:15.331Z,1319
2023-02-19T07:59:29.083Z,1321
2023-02-19T08:00:41.687Z,1326
2023-02-19T08:01:45.118Z,1328
2023-02-19T08:02:57.797Z,1332
2023-02-19T08:04:11.114Z,1333
2023-02-19T08:05:13.721Z,1329
2023-02-19T08:06:27.097Z,1319
2023-02-19T08:07:39.626Z,1299
2023-02-19T08:08:53.604Z,1243
2023-02-19T08:09:56.907Z,1115
2023-02-19T08:11:10.518Z,969
2023-02-19T08:12:23.124Z,912
2023-02-19T08:13:26.575Z,882
2023-02-19T08:14:39.065Z,854
2023-02-19T08:15:52.092Z,846
2023-02-19T08:16:54.814Z,834
2023-02-19T08:18:08.113Z,814
2023-02-19T08:19:20.626Z,798
2023-02-19T08:20:34.090Z,765
2023-02-19T08:21:36.559Z,712
2023-02-19T08:22:50.066Z,683
2023-02-19T08:24:02.448Z,664
2023-02-19T08:25:05.582Z,655
2023-02-19T08:26:17.952Z,647
2023-02-19T08:27:31.103Z,651
2023-02-19T08:28:43.548Z,658
2023-02-19T08:29:48.104Z,661
2023-02-19T08:31:00.660Z,667
2023-02-19T08:32:14.215Z,672
2023-02-19T08:33:16.846Z,677
2023-02-19T08:34:30.843Z,679
2023-02-19T08:35:43.236Z,680
2023-02-19T08:36:49.077Z,681
2023-02-19T08:38:01.423Z,681
2023-02-19T08:39:14.628Z,683
2023-02-19T08:40:17.163Z,686
2023-02-19T08:41:30.609Z,687
2023-02-19T08:42:42.961Z,688
2023-02-19T08:43:46.101Z,688
2023-02-19T08:44:58.536Z,687
2023-02-19T08:46:11.629Z,687
2023-02-19T08:47:14.145Z,688
2023-02-19T08:48:27.101Z,689
2023-02-19T08:49:39.439Z,692
2023-02-19T08:50:52.585Z,693
2023-02-19T08:51:55.061Z,699
2023-02-19T08:53:08.080Z,703
2023-02-19T08:54:20.432Z,704
2023-02-19T08:55:33.572Z,707
2023-02-19T08:56:36.104Z,713
2023-02-19T08:57:50.611Z,718
2023-02-19T08:59:22.678Z,724
2023-02-19T09:00:06.087Z,731
2023-02-19T09:01:18.890Z,735
2023-02-19T09:02:32.111Z,742
2023-02-19T09:03:44.442Z,752
2023-02-19T09:04:47.581Z,761
2023-02-19T09:06:19.696Z,769
2023-02-19T09:07:13.095Z,778
2023-02-19T09:08:15.495Z,784
2023-02-19T09:09:28.591Z,787
2023-02-19T09:10:40.903Z,792
2023-02-19T09:11:54.082Z,792
2023-02-19T09:12:56.596Z,799
2023-02-19T09:14:09.577Z,798
2023-02-19T09:15:21.908Z,798
2023-02-19T09:16:35.108Z,800
2023-02-19T09:17:37.525Z,800
2023-02-19T09:18:50.597Z,803
2023-02-19T09:20:02.908Z,803
2023-02-19T09:21:16.090Z,804
2023-02-19T09:22:18.575Z,804
2023-02-19T09:23:31.587Z,807
2023-02-19T09:24:43.894Z,806
2023-02-19T09:25:47.071Z,806
2023-02-19T09:26:59.411Z,808
2023-02-19T09:28:12.596Z,810
2023-02-19T09:29:24.973Z,810
2023-02-19T09:30:28.170Z,809
2023-02-19T09:31:40.663Z,810
2023-02-19T09:32:54.110Z,810
2023-02-19T09:33:56.544Z,812
2023-02-19T09:35:09.742Z,810
2023-02-19T09:36:22.146Z,808
2023-02-19T09:37:35.126Z,806
2023-02-19T09:38:37.541Z,805
2023-02-19T09:39:51.109Z,808
2023-02-19T09:41:03.452Z,808
2023-02-19T09:42:16.600Z,809
2023-02-19T09:43:19.020Z,812
2023-02-19T09:44:32.585Z,811
2023-02-19T09:45:44.963Z,814
2023-02-19T09:46:48.131Z,813
2023-02-19T09:48:00.462Z,815
2023-02-19T09:49:13.627Z,816
2023-02-19T09:50:25.925Z,816
2023-02-19T09:51:29.097Z,816
2023-02-19T09:52:41.516Z,815
2023-02-19T09:53:54.624Z,815
2023-02-19T09:54:57.386Z,813
2023-02-19T09:56:10.617Z,815
2023-02-19T09:57:23.976Z,812
2023-02-19T09:58:37.079Z,814
2023-02-19T09:59:39.564Z,814
2023-02-19T10:00:52.814Z,813
2023-02-19T10:02:05.128Z,813
2023-02-19T10:03:08.591Z,815
2023-02-19T10:04:20.946Z,817
2023-02-19T10:05:34.887Z,819
2023-02-19T10:06:47.327Z,821
2023-02-19T10:07:50.608Z,822
2023-02-19T10:09:02.969Z,822
2023-02-19T10:10:16.124Z,824
2023-02-19T10:11:18.543Z,826
2023-02-19T10:12:32.100Z,825
2023-02-19T10:13:44.447Z,827
2023-02-19T10:14:57.611Z,828
2023-02-19T10:16:00.095Z,830
2023-02-19T10:17:13.595Z,832
2023-02-19T10:18:26.129Z,832
2023-02-19T10:19:29.618Z,832
2023-02-19T10:20:41.953Z,837
2023-02-19T10:21:55.100Z,838
2023-02-19T10:23:07.462Z,845
2023-02-19T10:24:10.612Z,853
2023-02-19T10:25:22.935Z,873
2023-02-19T10:26:36.117Z,906
2023-02-19T10:27:48.525Z,928
2023-02-19T10:28:51.618Z,946
2023-02-19T10:30:04.089Z,962
2023-02-19T10:31:27.253Z,975
2023-02-19T10:32:20.500Z,995
2023-02-19T10:33:34.107Z,1013
2023-02-19T10:34:46.415Z,1033
2023-02-19T10:35:59.886Z,1073
2023-02-19T10:37:02.349Z,1106
2023-02-19T10:38:15.612Z,1131
2023-02-19T10:39:27.992Z,1145
2023-02-19T10:40:31.601Z,1154
2023-02-19T10:41:44.399Z,1169
2023-02-19T10:42:57.631Z,1185
2023-02-19T10:44:09.945Z,1224
2023-02-19T10:45:13.187Z,1258
2023-02-19T10:46:25.531Z,1292
2023-02-19T10:47:38.604Z,1293
2023-02-19T10:48:41.155Z,1314
2023-02-19T10:49:54.120Z,1320
2023-02-19T10:51:06.624Z,1324
2023-02-19T10:52:19.639Z,1331
2023-02-19T10:53:22.043Z,1333
2023-02-19T10:54:35.119Z,1336
2023-02-19T10:55:47.468Z,1349
2023-02-19T10:57:00.608Z,1354
2023-02-19T10:58:03.031Z,1362
2023-02-19T10:59:16.144Z,1366
2023-02-19T11:00:28.441Z,1371
2023-02-19T11:01:41.664Z,1381
2023-02-19T11:02:44.155Z,1385
2023-02-19T11:03:57.644Z,1392
2023-02-19T11:05:19.910Z,1394
2023-02-19T11:06:13.143Z,1398
2023-02-19T11:07:25.564Z,1400
2023-02-19T11:08:38.626Z,1405
2023-02-19T11:09:50.936Z,1405
2023-02-19T11:10:54.111Z,1412
2023-02-19T11:12:08.418Z,1415
2023-02-19T11:13:22.625Z,1422
2023-02-19T11:14:25.015Z,1430
2023-02-19T11:15:38.154Z,1428
2023-02-19T11:16:50.480Z,1436
2023-02-19T11:17:53.653Z,1442
2023-02-19T11:19:05.931Z,1445
2023-02-19T11:20:19.123Z,1448
2023-02-19T11:21:31.401Z,1450
2023-02-19T11:22:34.627Z,1458
2023-02-19T11:23:47.034Z,1462
2023-02-19T11:25:00.126Z,1466
2023-02-19T11:26:12.399Z,1470
2023-02-19T11:27:15.633Z,1469
2023-02-19T11:28:27.924Z,1465
2023-02-19T11:29:41.140Z,1456
2023-02-19T11:30:43.596Z,1448
2023-02-19T11:31:56.778Z,1428
2023-02-19T11:33:10.478Z,1375
2023-02-19T11:34:14.238Z,1348
2023-02-19T11:35:26.502Z,1328
2023-02-19T11:36:39.828Z,1319
2023-02-19T11:37:42.200Z,1314
2023-02-19T11:38:55.168Z,1307
2023-02-19T11:40:07.448Z,1309
2023-02-19T11:41:20.648Z,1298
2023-02-19T11:42:23.057Z,1292
2023-02-19T11:43:36.129Z,1291
2023-02-19T11:44:48.411Z,1283
2023-02-19T11:46:01.608Z,1278
2023-02-19T11:47:03.993Z,1270
2023-02-19T11:48:17.654Z,1259
2023-02-19T11:49:29.944Z,1248
2023-02-19T11:50:43.139Z,1218
2023-02-19T11:51:51.488Z,1185
2023-02-19T11:52:55.782Z,1176
2023-02-19T11:54:08.114Z,1177
2023-02-19T11:55:21.615Z,1169
2023-02-19T11:56:24.014Z,1159
2023-02-19T11:57:37.620Z,1148
2023-02-19T11:58:49.916Z,1144
2023-02-19T12:00:03.660Z,1140
2023-02-19T12:01:06.068Z,1137
2023-02-19T12:02:19.202Z,1132
2023-02-19T12:03:31.580Z,1131
2023-02-19T12:04:44.734Z,1126
2023-02-19T12:05:47.202Z,1120
2023-02-19T12:07:00.124Z,1113
2023-02-19T12:08:12.444Z,1098
2023-02-19T12:09:25.656Z,1070
2023-02-19T12:10:28.124Z,1016
2023-02-19T12:11:41.645Z,992
2023-02-19T12:12:53.941Z,993
2023-02-19T12:13:57.126Z,983
2023-02-19T12:15:09.468Z,970
2023-02-19T12:16:22.697Z,974
2023-02-19T12:17:35.081Z,969
2023-02-19T12:18:38.177Z,974
2023-02-19T12:19:50.499Z,973
2023-02-19T12:21:03.640Z,972
2023-02-19T12:22:06.143Z,971
2023-02-19T12:23:19.168Z,977
2023-02-19T12:24:31.496Z,981
2023-02-19T12:25:44.639Z,985
2023-02-19T12:26:47.128Z,988
2023-02-19T12:28:00.349Z,990
2023-02-19T12:29:12.666Z,989
2023-02-19T12:30:25.692Z,990
2023-02-19T12:31:28.361Z,992
2023-02-19T12:32:41.621Z,989
2023-02-19T12:33:53.948Z,991
2023-02-19T12:35:07.148Z,992
2023-02-19T12:36:09.936Z,991
2023-02-19T12:37:23.661Z,992
2023-02-19T12:38:36.048Z,994
2023-02-19T12:39:39.125Z,994
2023-02-19T12:40:51.478Z,994
2023-02-19T12:42:14.650Z,993
2023-02-19T12:43:17.754Z,992
2023-02-19T12:44:21.161Z,992
2023-02-19T12:45:33.540Z,990
2023-02-19T12:46:56.636Z,989
2023-02-19T12:47:49.157Z,989
2023-02-19T12:49:02.328Z,987
2023-02-19T12:50:24.623Z,984
2023-02-19T12:51:28.171Z,982
2023-02-19T12:52:30.619Z,982
2023-02-19T12:53:43.641Z,983
2023-02-19T12:54:56.098Z,980
2023-02-19T12:56:09.393Z,980
2023-02-19T12:57:12.084Z,979
2023-02-19T12:58:25.176Z,978
2023-02-19T12:59:37.512Z,977
2023-02-19T13:00:40.692Z,976
2023-02-19T13:01:53.023Z,973
2023-02-19T13:03:06.166Z,975
2023-02-19T13:04:18.494Z,973
2023-02-19T13:05:21.678Z,970
2023-02-19T13:06:43.736Z,970
2023-02-19T13:07:47.177Z,968
2023-02-19T13:09:06.718Z,966
2023-02-19T13:10:10.250Z,964
2023-02-19T13:11:12.987Z,959
2023-02-19T13:12:26.776Z,958
2023-02-19T13:13:39.116Z,958
2023-02-19T13:14:42.188Z,957
2023-02-19T13:16:17.355Z,955
2023-02-19T13:17:11.680Z,952
2023-02-19T13:18:14.109Z,949
2023-02-19T13:19:27.215Z,948
2023-02-19T13:20:39.549Z,946
2023-02-19T13:21:42.691Z,948
2023-02-19T13:22:55.010Z,946
2023-02-19T13:24:08.673Z,945
2023-02-19T13:25:21.044Z,946
2023-02-19T13:26:24.151Z,942
2023-02-19T13:27:36.470Z,941
2023-02-19T13:28:49.651Z,940
2023-02-19T13:30:02.055Z,938
2023-02-19T13:31:05.788Z,938
2023-02-19T13:32:18.259Z,941
2023-02-19T13:33:31.685Z,940
2023-02-19T13:34:34.123Z,939
2023-02-19T13:35:47.153Z,938
2023-02-19T13:36:59.494Z,938
2023-02-19T13:38:12.661Z,938
2023-02-19T13:40:29.656Z,937
2023-02-19T13:41:42.028Z,935
2023-02-19T13:42:45.154Z,933
2023-02-19T13:43:57.548Z,930
2023-02-19T13:45:10.694Z,929
2023-02-19T13:46:13.182Z,928
2023-02-19T13:47:26.167Z,929
2023-02-19T13:48:38.498Z,926
2023-02-19T13:49:51.668Z,926
2023-02-19T13:50:54.258Z,928
2023-02-19T13:52:08.187Z,927
2023-02-19T13:53:20.522Z,926
2023-02-19T13:54:33.695Z,923
2023-02-19T13:55:36.366Z,921
2023-02-19T13:56:49.942Z,921
2023-02-19T13:58:02.337Z,920
2023-02-19T13:59:05.671Z,922
2023-02-19T14:00:19.508Z,929
2023-02-19T14:01:33.220Z,934
2023-02-19T14:02:36.404Z,935
2023-02-19T14:03:49.692Z,932
2023-02-19T14:05:02.067Z,932
2023-02-19T14:06:15.185Z,929
2023-02-19T14:07:17.635Z,929
2023-02-19T14:08:30.674Z,931
2023-02-19T14:09:43.036Z,933
2023-02-19T14:10:46.199Z,935
2023-02-19T14:11:58.396Z,935
2023-02-19T14:13:14.263Z,940
2023-02-19T14:14:18.080Z,941
2023-02-19T14:15:33.089Z,944
2023-02-19T14:16:35.995Z,945
2023-02-19T14:17:49.172Z,951
2023-02-19T14:19:21.262Z,951
2023-02-19T14:20:14.702Z,952
2023-02-19T14:21:17.188Z,953
2023-02-19T14:22:30.233Z,955
2023-02-19T14:23:43.516Z,961
2023-02-19T14:25:06.694Z,965
2023-02-19T14:25:59.292Z,968
2023-02-19T14:27:13.714Z,971
2023-02-19T14:28:16.164Z,974
2023-02-19T14:29:31.574Z,977
2023-02-19T14:30:43.971Z,979
2023-02-19T14:31:47.342Z,980
2023-02-19T14:33:10.223Z,981
2023-02-19T14:34:14.219Z,985
2023-02-19T14:35:16.642Z,992
2023-02-19T14:36:30.224Z,994
2023-02-19T14:37:42.613Z,997
2023-02-19T14:38:55.696Z,994
2023-02-19T14:39:58.163Z,997
2023-02-19T14:41:11.627Z,998
2023-02-19T14:42:34.304Z,1002
2023-02-19T14:43:37.801Z,1000
2023-02-19T14:44:40.286Z,1002
2023-02-19T14:45:53.797Z,1004
2023-02-19T14:47:06.125Z,1007
2023-02-19T14:48:09.699Z,1011
2023-02-19T14:49:22.017Z,1013
2023-02-19T14:50:35.199Z,1013
2023-02-19T14:51:37.699Z,1017
2023-02-19T14:53:00.713Z,1016
2023-02-19T14:54:03.210Z,1016
2023-02-19T14:55:16.701Z,1017
2023-02-19T14:56:19.150Z,1018
2023-02-19T14:57:32.206Z,1021
2023-02-19T14:58:44.511Z,1023
2023-02-19T14:59:47.709Z,1025
2023-02-19T15:01:00.030Z,1026
2023-02-19T15:02:13.252Z,1030
2023-02-19T15:03:25.574Z,1032
2023-02-19T15:04:48.728Z,1036
2023-02-19T15:05:41.289Z,1035
2023-02-19T15:06:54.719Z,1038
2023-02-19T15:07:57.422Z,1039
2023-02-19T15:09:10.685Z,1039
2023-02-19T15:10:24.070Z,1042
2023-02-19T15:11:37.199Z,1046
2023-02-19T15:12:39.644Z,1048
2023-02-19T15:13:52.730Z,1047
2023-02-19T15:15:05.083Z,1047
2023-02-19T15:16:18.289Z,1047
2023-02-19T15:17:20.758Z,1051
2023-02-19T15:18:33.853Z,1051
2023-02-19T15:19:46.450Z,1051
2023-02-19T15:20:49.682Z,1052
2023-02-19T15:22:02.022Z,1058
2023-02-19T15:23:15.191Z,1060
2023-02-19T15:24:27.607Z,1062
2023-02-19T15:25:51.247Z,1066
2023-02-19T15:26:43.833Z,1069
2023-02-19T15:27:57.205Z,1073
2023-02-19T15:29:00.024Z,1076
2023-02-19T15:30:13.276Z,1080
2023-02-19T15:31:45.571Z,1081
2023-02-19T15:32:29.383Z,1082
2023-02-19T15:33:42.065Z,1081
2023-02-19T15:34:55.216Z,1080
2023-02-19T15:36:07.581Z,1079
2023-02-19T15:37:10.713Z,1076
2023-02-19T15:38:42.741Z,1077
2023-02-19T15:39:36.739Z,1078
2023-02-19T15:40:39.128Z,1082
2023-02-19T15:41:52.703Z,1080
2023-02-19T15:43:05.035Z,1081
2023-02-19T15:44:38.214Z,1084
2023-02-19T15:45:20.825Z,1085
2023-02-19T15:46:43.773Z,1085
2023-02-19T15:47:56.105Z,1083
2023-02-19T15:48:49.214Z,1082
2023-02-19T15:50:01.664Z,1081
2023-02-19T15:51:14.761Z,1081
2023-02-19T15:52:27.117Z,1082
2023-02-19T15:53:30.223Z,1080
2023-02-19T15:54:42.602Z,1080
2023-02-19T15:55:55.802Z,1080
2023-02-19T15:57:08.111Z,1080